sensor_id;sensor_type;location;lat;lon;timestamp;P1;durP1;ratioP1;P2;durP2;ratioP2
9276;SDS011;4676;42.678;23.244;2023-02-28T00:01:18;17.03;;;11.83;;
9276;SDS011;4676;42.678;23.244;2023-02-28T00:03:45;16.97;;;11.37;;
9276;SDS011;4676;42.678;23.244;2023-02-28T00:06:12;18.97;;;10.63;;
9276;SDS011;4676;42.678;23.244;2023-02-28T00:08:39;17.40;;;11.93;;
9276;SDS011;4676;42.678;23.244;2023-02-28T00:11:06;20.30;;;11.80;;
9276;SDS011;4676;42.678;23.244;2023-02-28T00:13:36;19.37;;;11.60;;
9276;SDS011;4676;42.678;23.244;2023-02-28T00:16:04;14.83;;;11.10;;
9276;SDS011;4676;42.678;23.244;2023-02-28T00:18:33;17.50;;;11.30;;
9276;SDS011;4676;42.678;23.244;2023-02-28T00:21:00;23.50;;;11.33;;
9276;SDS011;4676;42.678;23.244;2023-02-28T00:23:27;16.40;;;11.27;;
9276;SDS011;4676;42.678;23.244;2023-02-28T00:25:54;16.97;;;9.93;;
9276;SDS011;4676;42.678;23.244;2023-02-28T00:28:21;23.13;;;11.37;;
9276;SDS011;4676;42.678;23.244;2023-02-28T00:30:49;15.53;;;10.90;;
9276;SDS011;4676;42.678;23.244;2023-02-28T00:33:16;16.57;;;10.87;;
9276;SDS011;4676;42.678;23.244;2023-02-28T00:35:43;18.87;;;10.83;;
9276;SDS011;4676;42.678;23.244;2023-02-28T00:38:11;18.33;;;9.90;;
9276;SDS011;4676;42.678;23.244;2023-02-28T00:40:38;18.60;;;10.17;;
9276;SDS011;4676;42.678;23.244;2023-02-28T00:43:04;17.13;;;10.20;;
9276;SDS011;4676;42.678;23.244;2023-02-28T00:45:31;13.87;;;9.43;;
9276;SDS011;4676;42.678;23.244;2023-02-28T00:47:59;17.63;;;10.43;;
9276;SDS011;4676;42.678;23.244;2023-02-28T00:50:26;18.20;;;10.23;;
9276;SDS011;4676;42.678;23.244;2023-02-28T00:52:53;16.30;;;9.77;;
9276;SDS011;4676;42.678;23.244;2023-02-28T00:55:19;18.37;;;11.33;;
9276;SDS011;4676;42.678;23.244;2023-02-28T00:57:46;19.27;;;12.57;;
9276;SDS011;4676;42.678;23.244;2023-02-28T01:00:13;25.50;;;13.00;;
9276;SDS011;4676;42.678;23.244;2023-02-28T01:02:40;27.13;;;16.03;;
9276;SDS011;4676;42.678;23.244;2023-02-28T01:05:09;26.60;;;15.87;;
9276;SDS011;4676;42.678;23.244;2023-02-28T01:07:35;35.40;;;16.90;;
9276;SDS011;4676;42.678;23.244;2023-02-28T01:10:03;37.90;;;17.90;;
9276;SDS011;4676;42.678;23.244;2023-02-28T01:12:30;33.27;;;17.23;;
9276;SDS011;4676;42.678;23.244;2023-02-28T01:14:57;42.90;;;15.00;;
9276;SDS011;4676;42.678;23.244;2023-02-28T01:17:24;29.13;;;16.80;;
9276;SDS011;4676;42.678;23.244;2023-02-28T01:19:52;46.43;;;15.97;;
9276;SDS011;4676;42.678;23.244;2023-02-28T01:22:21;33.13;;;16.37;;
9276;SDS011;4676;42.678;23.244;2023-02-28T01:24:48;55.13;;;18.27;;
9276;SDS011;4676;42.678;23.244;2023-02-28T01:27:15;54.77;;;18.23;;
9276;SDS011;4676;42.678;23.244;2023-02-28T01:29:41;45.13;;;16.53;;
9276;SDS011;4676;42.678;23.244;2023-02-28T01:32:08;44.97;;;17.47;;
9276;SDS011;4676;42.678;23.244;2023-02-28T01:34:35;46.37;;;14.50;;
9276;SDS011;4676;42.678;23.244;2023-02-28T01:37:01;45.03;;;15.23;;
9276;SDS011;4676;42.678;23.244;2023-02-28T01:39:29;32.10;;;16.23;;
9276;SDS011;4676;42.678;23.244;2023-02-28T01:41:56;38.43;;;14.87;;
9276;SDS011;4676;42.678;23.244;2023-02-28T01:47:27;40.40;;;16.70;;
9276;SDS011;4676;42.678;23.244;2023-02-28T01:49:57;37.20;;;16.67;;
9276;SDS011;4676;42.678;23.244;2023-02-28T01:52:27;33.13;;;16.23;;
9276;SDS011;4676;42.678;23.244;2023-02-28T01:54:56;39.93;;;17.87;;
9276;SDS011;4676;42.678;23.244;2023-02-28T01:57:27;32.73;;;15.30;;
9276;SDS011;4676;42.678;23.244;2023-02-28T02:00:03;38.90;;;15.50;;
9276;SDS011;4676;42.678;23.244;2023-02-28T02:02:33;34.10;;;15.47;;
9276;SDS011;4676;42.678;23.244;2023-02-28T02:05:03;49.83;;;18.87;;
9276;SDS011;4676;42.678;23.244;2023-02-28T02:07:32;37.80;;;15.73;;
9276;SDS011;4676;42.678;23.244;2023-02-28T02:10:03;39.47;;;14.00;;
9276;SDS011;4676;42.678;23.244;2023-02-28T02:12:44;48.93;;;16.40;;
9276;SDS011;4676;42.678;23.244;2023-02-28T02:15:23;29.93;;;13.83;;
9276;SDS011;4676;42.678;23.244;2023-02-28T02:17:56;44.53;;;15.93;;
9276;SDS011;4676;42.678;23.244;2023-02-28T02:20:51;40.27;;;17.40;;
9276;SDS011;4676;42.678;23.244;2023-02-28T02:23:46;59.60;;;17.07;;
9276;SDS011;4676;42.678;23.244;2023-02-28T02:26:39;42.70;;;16.20;;
9276;SDS011;4676;42.678;23.244;2023-02-28T02:29:22;45.47;;;16.50;;
9276;SDS011;4676;42.678;23.244;2023-02-28T02:32:18;82.90;;;17.43;;
9276;SDS011;4676;42.678;23.244;2023-02-28T02:35:01;54.60;;;16.47;;
9276;SDS011;4676;42.678;23.244;2023-02-28T02:37:36;69.67;;;17.67;;
9276;SDS011;4676;42.678;23.244;2023-02-28T02:40:09;62.53;;;15.07;;
9276;SDS011;4676;42.678;23.244;2023-02-28T02:42:41;54.33;;;17.27;;
9276;SDS011;4676;42.678;23.244;2023-02-28T02:45:16;48.67;;;16.20;;
9276;SDS011;4676;42.678;23.244;2023-02-28T02:47:46;61.43;;;19.00;;
9276;SDS011;4676;42.678;23.244;2023-02-28T02:50:17;48.70;;;16.20;;
9276;SDS011;4676;42.678;23.244;2023-02-28T02:52:51;43.07;;;17.87;;
9276;SDS011;4676;42.678;23.244;2023-02-28T02:55:24;45.73;;;16.37;;
9276;SDS011;4676;42.678;23.244;2023-02-28T02:57:52;56.03;;;15.70;;
9276;SDS011;4676;42.678;23.244;2023-02-28T03:00:23;63.27;;;15.47;;
9276;SDS011;4676;42.678;23.244;2023-02-28T03:02:55;52.93;;;15.63;;
9276;SDS011;4676;42.678;23.244;2023-02-28T03:05:25;40.43;;;15.97;;
9276;SDS011;4676;42.678;23.244;2023-02-28T03:07:54;57.70;;;14.50;;
9276;SDS011;4676;42.678;23.244;2023-02-28T03:10:34;48.07;;;14.97;;
9276;SDS011;4676;42.678;23.244;2023-02-28T03:13:11;43.60;;;15.17;;
9276;SDS011;4676;42.678;23.244;2023-02-28T03:15:50;52.43;;;14.20;;
9276;SDS011;4676;42.678;23.244;2023-02-28T03:18:29;43.40;;;13.70;;
9276;SDS011;4676;42.678;23.244;2023-02-28T03:21:05;39.43;;;13.77;;
9276;SDS011;4676;42.678;23.244;2023-02-28T03:23:41;42.57;;;13.40;;
9276;SDS011;4676;42.678;23.244;2023-02-28T03:26:12;36.73;;;14.27;;
9276;SDS011;4676;42.678;23.244;2023-02-28T03:28:48;54.47;;;14.17;;
9276;SDS011;4676;42.678;23.244;2023-02-28T03:31:22;47.87;;;14.30;;
9276;SDS011;4676;42.678;23.244;2023-02-28T03:33:55;40.40;;;13.77;;
9276;SDS011;4676;42.678;23.244;2023-02-28T03:36:29;34.43;;;13.53;;
9276;SDS011;4676;42.678;23.244;2023-02-28T03:39:02;51.67;;;14.87;;
9276;SDS011;4676;42.678;23.244;2023-02-28T03:41:32;44.07;;;13.47;;
9276;SDS011;4676;42.678;23.244;2023-02-28T03:44:06;28.80;;;13.60;;
9276;SDS011;4676;42.678;23.244;2023-02-28T03:46:40;37.60;;;15.10;;
9276;SDS011;4676;42.678;23.244;2023-02-28T03:49:13;34.57;;;15.70;;
9276;SDS011;4676;42.678;23.244;2023-02-28T03:51:46;34.30;;;15.53;;
9276;SDS011;4676;42.678;23.244;2023-02-28T03:54:16;33.70;;;15.60;;
9276;SDS011;4676;42.678;23.244;2023-02-28T03:56:48;33.30;;;15.30;;
9276;SDS011;4676;42.678;23.244;2023-02-28T03:59:20;37.20;;;15.87;;
9276;SDS011;4676;42.678;23.244;2023-02-28T04:01:52;63.83;;;15.30;;
9276;SDS011;4676;42.678;23.244;2023-02-28T04:04:20;64.50;;;16.53;;
9276;SDS011;4676;42.678;23.244;2023-02-28T04:06:50;47.03;;;16.13;;
9276;SDS011;4676;42.678;23.244;2023-02-28T04:09:18;64.83;;;18.03;;
9276;SDS011;4676;42.678;23.244;2023-02-28T04:11:46;47.70;;;16.47;;
9276;SDS011;4676;42.678;23.244;2023-02-28T04:14:17;68.03;;;18.07;;
9276;SDS011;4676;42.678;23.244;2023-02-28T04:16:44;62.43;;;17.40;;
9276;SDS011;4676;42.678;23.244;2023-02-28T04:19:12;70.20;;;18.87;;
9276;SDS011;4676;42.678;23.244;2023-02-28T04:21:40;49.87;;;17.83;;
9276;SDS011;4676;42.678;23.244;2023-02-28T04:24:10;86.87;;;17.83;;
9276;SDS011;4676;42.678;23.244;2023-02-28T04:26:40;61.37;;;17.03;;
9276;SDS011;4676;42.678;23.244;2023-02-28T04:29:09;67.37;;;18.27;;
9276;SDS011;4676;42.678;23.244;2023-02-28T04:31:37;71.90;;;19.00;;
9276;SDS011;4676;42.678;23.244;2023-02-28T04:34:04;63.67;;;18.97;;
9276;SDS011;4676;42.678;23.244;2023-02-28T04:36:31;53.10;;;18.07;;
9276;SDS011;4676;42.678;23.244;2023-02-28T04:38:58;56.87;;;17.90;;
9276;SDS011;4676;42.678;23.244;2023-02-28T04:41:26;53.53;;;16.50;;
9276;SDS011;4676;42.678;23.244;2023-02-28T04:43:53;63.03;;;18.37;;
9276;SDS011;4676;42.678;23.244;2023-02-28T04:46:21;80.60;;;17.37;;
9276;SDS011;4676;42.678;23.244;2023-02-28T04:48:48;93.67;;;23.97;;
9276;SDS011;4676;42.678;23.244;2023-02-28T04:51:16;66.50;;;18.80;;
9276;SDS011;4676;42.678;23.244;2023-02-28T04:53:43;66.07;;;18.40;;
9276;SDS011;4676;42.678;23.244;2023-02-28T04:56:11;73.90;;;18.60;;
9276;SDS011;4676;42.678;23.244;2023-02-28T04:58:40;48.33;;;18.33;;
9276;SDS011;4676;42.678;23.244;2023-02-28T05:01:16;55.50;;;19.63;;
9276;SDS011;4676;42.678;23.244;2023-02-28T05:03:45;74.33;;;18.53;;
9276;SDS011;4676;42.678;23.244;2023-02-28T05:06:12;70.77;;;18.23;;
9276;SDS011;4676;42.678;23.244;2023-02-28T05:08:39;45.50;;;17.50;;
9276;SDS011;4676;42.678;23.244;2023-02-28T05:11:08;65.43;;;18.50;;
9276;SDS011;4676;42.678;23.244;2023-02-28T05:13:41;53.70;;;18.30;;
9276;SDS011;4676;42.678;23.244;2023-02-28T05:16:08;55.77;;;17.83;;
9276;SDS011;4676;42.678;23.244;2023-02-28T05:18:35;77.83;;;17.47;;
9276;SDS011;4676;42.678;23.244;2023-02-28T05:21:02;81.13;;;18.80;;
9276;SDS011;4676;42.678;23.244;2023-02-28T05:23:29;49.77;;;18.60;;
9276;SDS011;4676;42.678;23.244;2023-02-28T05:25:56;60.73;;;18.80;;
9276;SDS011;4676;42.678;23.244;2023-02-28T05:28:23;69.73;;;20.33;;
9276;SDS011;4676;42.678;23.244;2023-02-28T05:30:51;54.20;;;19.27;;
9276;SDS011;4676;42.678;23.244;2023-02-28T05:33:17;72.97;;;20.53;;
9276;SDS011;4676;42.678;23.244;2023-02-28T05:35:44;64.87;;;20.13;;
9276;SDS011;4676;42.678;23.244;2023-02-28T05:38:11;56.10;;;21.20;;
9276;SDS011;4676;42.678;23.244;2023-02-28T05:40:38;71.10;;;21.00;;
9276;SDS011;4676;42.678;23.244;2023-02-28T05:43:05;56.00;;;20.90;;
9276;SDS011;4676;42.678;23.244;2023-02-28T05:45:32;60.43;;;20.10;;
9276;SDS011;4676;42.678;23.244;2023-02-28T05:48:00;58.83;;;18.60;;
9276;SDS011;4676;42.678;23.244;2023-02-28T05:50:27;45.03;;;17.47;;
9276;SDS011;4676;42.678;23.244;2023-02-28T05:52:54;66.47;;;20.50;;
9276;SDS011;4676;42.678;23.244;2023-02-28T05:55:20;66.33;;;19.27;;
9276;SDS011;4676;42.678;23.244;2023-02-28T05:57:47;58.73;;;19.20;;
9276;SDS011;4676;42.678;23.244;2023-02-28T06:00:14;71.50;;;27.17;;
9276;SDS011;4676;42.678;23.244;2023-02-28T06:02:42;55.00;;;21.40;;
9276;SDS011;4676;42.678;23.244;2023-02-28T06:05:13;45.30;;;19.07;;
9276;SDS011;4676;42.678;23.244;2023-02-28T06:07:40;69.60;;;18.73;;
9276;SDS011;4676;42.678;23.244;2023-02-28T06:10:07;55.33;;;16.00;;
9276;SDS011;4676;42.678;23.244;2023-02-28T06:12:34;67.13;;;17.77;;
9276;SDS011;4676;42.678;23.244;2023-02-28T06:15:00;39.67;;;16.73;;
9276;SDS011;4676;42.678;23.244;2023-02-28T06:17:27;59.57;;;18.20;;
9276;SDS011;4676;42.678;23.244;2023-02-28T06:19:53;50.50;;;20.00;;
9276;SDS011;4676;42.678;23.244;2023-02-28T06:22:21;53.17;;;19.80;;
9276;SDS011;4676;42.678;23.244;2023-02-28T06:24:48;53.57;;;19.37;;
9276;SDS011;4676;42.678;23.244;2023-02-28T06:27:14;62.97;;;21.43;;
9276;SDS011;4676;42.678;23.244;2023-02-28T06:29:41;72.03;;;25.20;;
9276;SDS011;4676;42.678;23.244;2023-02-28T06:32:07;63.00;;;19.70;;
9276;SDS011;4676;42.678;23.244;2023-02-28T06:34:34;67.97;;;20.07;;
9276;SDS011;4676;42.678;23.244;2023-02-28T06:37:01;67.47;;;20.53;;
9276;SDS011;4676;42.678;23.244;2023-02-28T06:39:29;59.40;;;21.13;;
9276;SDS011;4676;42.678;23.244;2023-02-28T06:41:56;67.17;;;20.13;;
9276;SDS011;4676;42.678;23.244;2023-02-28T06:44:23;66.40;;;21.17;;
9276;SDS011;4676;42.678;23.244;2023-02-28T06:46:49;60.90;;;20.20;;
9276;SDS011;4676;42.678;23.244;2023-02-28T06:49:16;70.70;;;21.97;;
9276;SDS011;4676;42.678;23.244;2023-02-28T06:51:43;79.17;;;21.70;;
9276;SDS011;4676;42.678;23.244;2023-02-28T06:54:11;60.60;;;19.57;;
9276;SDS011;4676;42.678;23.244;2023-02-28T06:56:39;66.27;;;20.43;;
9276;SDS011;4676;42.678;23.244;2023-02-28T06:59:05;64.53;;;21.20;;
9276;SDS011;4676;42.678;23.244;2023-02-28T07:01:32;65.20;;;20.87;;
9276;SDS011;4676;42.678;23.244;2023-02-28T07:03:59;63.40;;;21.97;;
9276;SDS011;4676;42.678;23.244;2023-02-28T07:06:26;68.97;;;21.83;;
9276;SDS011;4676;42.678;23.244;2023-02-28T07:08:53;64.70;;;22.07;;
9276;SDS011;4676;42.678;23.244;2023-02-28T07:11:20;56.00;;;20.73;;
9276;SDS011;4676;42.678;23.244;2023-02-28T07:13:48;56.97;;;22.40;;
9276;SDS011;4676;42.678;23.244;2023-02-28T07:16:16;69.23;;;23.37;;
9276;SDS011;4676;42.678;23.244;2023-02-28T07:18:42;71.40;;;24.37;;
9276;SDS011;4676;42.678;23.244;2023-02-28T07:21:09;65.50;;;21.10;;
9276;SDS011;4676;42.678;23.244;2023-02-28T07:23:36;64.07;;;23.27;;
9276;SDS011;4676;42.678;23.244;2023-02-28T07:26:04;80.03;;;26.97;;
9276;SDS011;4676;42.678;23.244;2023-02-28T07:28:30;70.07;;;25.50;;
9276;SDS011;4676;42.678;23.244;2023-02-28T07:31:02;65.83;;;20.60;;
9276;SDS011;4676;42.678;23.244;2023-02-28T07:33:28;68.00;;;24.60;;
9276;SDS011;4676;42.678;23.244;2023-02-28T07:35:59;86.60;;;32.50;;
9276;SDS011;4676;42.678;23.244;2023-02-28T07:38:26;83.73;;;26.43;;
9276;SDS011;4676;42.678;23.244;2023-02-28T07:40:52;68.63;;;26.47;;
9276;SDS011;4676;42.678;23.244;2023-02-28T07:43:19;66.30;;;25.50;;
9276;SDS011;4676;42.678;23.244;2023-02-28T07:45:45;65.80;;;24.20;;
9276;SDS011;4676;42.678;23.244;2023-02-28T07:48:13;83.90;;;24.20;;
9276;SDS011;4676;42.678;23.244;2023-02-28T07:50:39;64.67;;;23.80;;
9276;SDS011;4676;42.678;23.244;2023-02-28T07:53:06;77.97;;;25.57;;
9276;SDS011;4676;42.678;23.244;2023-02-28T07:55:32;75.17;;;23.20;;
9276;SDS011;4676;42.678;23.244;2023-02-28T07:58:00;72.63;;;24.80;;
9276;SDS011;4676;42.678;23.244;2023-02-28T08:00:26;89.93;;;25.47;;
9276;SDS011;4676;42.678;23.244;2023-02-28T08:02:54;63.23;;;24.47;;
9276;SDS011;4676;42.678;23.244;2023-02-28T08:05:21;67.67;;;24.70;;
9276;SDS011;4676;42.678;23.244;2023-02-28T08:07:48;69.57;;;23.80;;
9276;SDS011;4676;42.678;23.244;2023-02-28T08:10:15;125.37;;;35.33;;
9276;SDS011;4676;42.678;23.244;2023-02-28T08:12:42;87.43;;;27.63;;
9276;SDS011;4676;42.678;23.244;2023-02-28T08:15:08;71.80;;;25.40;;
9276;SDS011;4676;42.678;23.244;2023-02-28T08:17:35;75.63;;;24.50;;
9276;SDS011;4676;42.678;23.244;2023-02-28T08:20:01;74.93;;;24.90;;
9276;SDS011;4676;42.678;23.244;2023-02-28T08:22:30;72.90;;;24.90;;
9276;SDS011;4676;42.678;23.244;2023-02-28T08:24:56;67.07;;;24.57;;
9276;SDS011;4676;42.678;23.244;2023-02-28T08:27:23;70.80;;;24.43;;
9276;SDS011;4676;42.678;23.244;2023-02-28T08:29:49;70.67;;;24.17;;
9276;SDS011;4676;42.678;23.244;2023-02-28T08:32:16;63.43;;;25.10;;
9276;SDS011;4676;42.678;23.244;2023-02-28T08:34:42;89.90;;;26.37;;
9276;SDS011;4676;42.678;23.244;2023-02-28T08:37:09;71.60;;;24.60;;
9276;SDS011;4676;42.678;23.244;2023-02-28T08:39:37;80.47;;;25.23;;
9276;SDS011;4676;42.678;23.244;2023-02-28T08:42:04;76.70;;;24.67;;
9276;SDS011;4676;42.678;23.244;2023-02-28T08:44:30;69.27;;;25.27;;
9276;SDS011;4676;42.678;23.244;2023-02-28T08:46:57;72.07;;;25.90;;
9276;SDS011;4676;42.678;23.244;2023-02-28T08:49:23;77.90;;;25.63;;
9276;SDS011;4676;42.678;23.244;2023-02-28T08:51:50;61.77;;;23.60;;
9276;SDS011;4676;42.678;23.244;2023-02-28T08:54:16;78.43;;;26.97;;
9276;SDS011;4676;42.678;23.244;2023-02-28T08:56:46;77.13;;;26.37;;
9276;SDS011;4676;42.678;23.244;2023-02-28T08:59:12;72.33;;;28.00;;
9276;SDS011;4676;42.678;23.244;2023-02-28T09:01:39;80.47;;;26.03;;
9276;SDS011;4676;42.678;23.244;2023-02-28T09:04:06;73.03;;;27.40;;
9276;SDS011;4676;42.678;23.244;2023-02-28T09:06:33;74.80;;;25.67;;
9276;SDS011;4676;42.678;23.244;2023-02-28T09:09:00;75.10;;;26.23;;
9276;SDS011;4676;42.678;23.244;2023-02-28T09:11:26;77.80;;;26.30;;
9276;SDS011;4676;42.678;23.244;2023-02-28T09:13:58;70.20;;;28.07;;
9276;SDS011;4676;42.678;23.244;2023-02-28T09:16:25;63.73;;;23.07;;
9276;SDS011;4676;42.678;23.244;2023-02-28T09:18:51;66.57;;;26.77;;
9276;SDS011;4676;42.678;23.244;2023-02-28T09:21:18;73.47;;;25.30;;
9276;SDS011;4676;42.678;23.244;2023-02-28T09:23:46;72.20;;;26.57;;
9276;SDS011;4676;42.678;23.244;2023-02-28T09:26:13;71.67;;;28.47;;
9276;SDS011;4676;42.678;23.244;2023-02-28T09:28:40;69.53;;;25.63;;
9276;SDS011;4676;42.678;23.244;2023-02-28T09:31:10;73.70;;;28.10;;
9276;SDS011;4676;42.678;23.244;2023-02-28T09:33:37;71.90;;;26.83;;
9276;SDS011;4676;42.678;23.244;2023-02-28T09:36:04;72.50;;;27.13;;
9276;SDS011;4676;42.678;23.244;2023-02-28T09:38:31;72.30;;;26.77;;
9276;SDS011;4676;42.678;23.244;2023-02-28T09:40:59;67.67;;;26.37;;
9276;SDS011;4676;42.678;23.244;2023-02-28T09:43:33;70.50;;;25.77;;
9276;SDS011;4676;42.678;23.244;2023-02-28T09:46:03;69.93;;;25.73;;
9276;SDS011;4676;42.678;23.244;2023-02-28T09:48:34;66.37;;;24.40;;
9276;SDS011;4676;42.678;23.244;2023-02-28T09:51:02;66.27;;;25.97;;
9276;SDS011;4676;42.678;23.244;2023-02-28T09:53:30;66.50;;;25.67;;
9276;SDS011;4676;42.678;23.244;2023-02-28T09:55:59;79.00;;;26.20;;
9276;SDS011;4676;42.678;23.244;2023-02-28T09:58:28;68.93;;;25.80;;
9276;SDS011;4676;42.678;23.244;2023-02-28T10:00:59;73.33;;;27.60;;
9276;SDS011;4676;42.678;23.244;2023-02-28T10:03:28;66.77;;;25.40;;
9276;SDS011;4676;42.678;23.244;2023-02-28T10:05:59;65.50;;;24.83;;
9276;SDS011;4676;42.678;23.244;2023-02-28T10:08:30;63.30;;;25.60;;
9276;SDS011;4676;42.678;23.244;2023-02-28T10:10:58;57.20;;;24.73;;
9276;SDS011;4676;42.678;23.244;2023-02-28T10:13:27;62.53;;;25.60;;
9276;SDS011;4676;42.678;23.244;2023-02-28T10:15:56;58.97;;;24.83;;
9276;SDS011;4676;42.678;23.244;2023-02-28T10:18:29;69.10;;;26.23;;
9276;SDS011;4676;42.678;23.244;2023-02-28T10:21:15;58.63;;;25.43;;
9276;SDS011;4676;42.678;23.244;2023-02-28T10:23:47;62.97;;;24.83;;
9276;SDS011;4676;42.678;23.244;2023-02-28T10:26:16;57.80;;;26.53;;
9276;SDS011;4676;42.678;23.244;2023-02-28T10:28:43;60.00;;;24.30;;
9276;SDS011;4676;42.678;23.244;2023-02-28T10:31:11;65.83;;;24.97;;
9276;SDS011;4676;42.678;23.244;2023-02-28T10:33:42;57.90;;;24.60;;
9276;SDS011;4676;42.678;23.244;2023-02-28T10:36:10;63.40;;;23.97;;
9276;SDS011;4676;42.678;23.244;2023-02-28T10:38:42;59.23;;;25.43;;
9276;SDS011;4676;42.678;23.244;2023-02-28T10:41:11;50.37;;;24.77;;
9276;SDS011;4676;42.678;23.244;2023-02-28T10:43:41;61.47;;;25.27;;
9276;SDS011;4676;42.678;23.244;2023-02-28T10:46:11;47.23;;;24.20;;
9276;SDS011;4676;42.678;23.244;2023-02-28T10:48:57;49.70;;;23.90;;
9276;SDS011;4676;42.678;23.244;2023-02-28T10:51:33;47.83;;;23.90;;
9276;SDS011;4676;42.678;23.244;2023-02-28T10:54:03;52.43;;;25.10;;
9276;SDS011;4676;42.678;23.244;2023-02-28T10:56:31;42.57;;;20.57;;
9276;SDS011;4676;42.678;23.244;2023-02-28T10:58:59;39.33;;;17.97;;
9276;SDS011;4676;42.678;23.244;2023-02-28T11:01:35;36.07;;;14.83;;
9276;SDS011;4676;42.678;23.244;2023-02-28T11:04:11;26.90;;;13.20;;
9276;SDS011;4676;42.678;23.244;2023-02-28T11:06:43;28.73;;;10.40;;
9276;SDS011;4676;42.678;23.244;2023-02-28T11:09:17;21.10;;;9.93;;
9276;SDS011;4676;42.678;23.244;2023-02-28T11:11:48;17.27;;;9.87;;
9276;SDS011;4676;42.678;23.244;2023-02-28T11:14:18;23.83;;;8.83;;
9276;SDS011;4676;42.678;23.244;2023-02-28T11:16:47;16.97;;;8.47;;
9276;SDS011;4676;42.678;23.244;2023-02-28T11:19:17;20.53;;;9.33;;
9276;SDS011;4676;42.678;23.244;2023-02-28T11:21:48;14.90;;;7.50;;
9276;SDS011;4676;42.678;23.244;2023-02-28T11:24:21;18.50;;;8.83;;
9276;SDS011;4676;42.678;23.244;2023-02-28T11:26:51;14.60;;;8.57;;
9276;SDS011;4676;42.678;23.244;2023-02-28T11:29:18;15.13;;;8.27;;
9276;SDS011;4676;42.678;23.244;2023-02-28T11:34:42;21.80;;;9.20;;
9276;SDS011;4676;42.678;23.244;2023-02-28T11:37:11;16.17;;;9.23;;
9276;SDS011;4676;42.678;23.244;2023-02-28T11:39:40;19.87;;;9.77;;
9276;SDS011;4676;42.678;23.244;2023-02-28T11:42:14;24.57;;;9.90;;
9276;SDS011;4676;42.678;23.244;2023-02-28T11:44:53;21.60;;;9.70;;
9276;SDS011;4676;42.678;23.244;2023-02-28T11:47:31;18.60;;;9.50;;
9276;SDS011;4676;42.678;23.244;2023-02-28T11:50:11;21.27;;;10.03;;
9276;SDS011;4676;42.678;23.244;2023-02-28T11:52:48;17.27;;;9.33;;
9276;SDS011;4676;42.678;23.244;2023-02-28T11:55:21;15.40;;;8.57;;
9276;SDS011;4676;42.678;23.244;2023-02-28T12:00:52;18.53;;;10.00;;
9276;SDS011;4676;42.678;23.244;2023-02-28T12:03:39;16.40;;;9.27;;
9276;SDS011;4676;42.678;23.244;2023-02-28T12:06:18;17.00;;;10.00;;
9276;SDS011;4676;42.678;23.244;2023-02-28T12:08:54;18.40;;;10.43;;
9276;SDS011;4676;42.678;23.244;2023-02-28T12:11:39;24.43;;;9.90;;
9276;SDS011;4676;42.678;23.244;2023-02-28T12:14:30;16.87;;;9.23;;
9276;SDS011;4676;42.678;23.244;2023-02-28T12:17:22;18.83;;;9.83;;
9276;SDS011;4676;42.678;23.244;2023-02-28T12:20:05;17.93;;;10.43;;
9276;SDS011;4676;42.678;23.244;2023-02-28T12:22:41;24.23;;;10.53;;
9276;SDS011;4676;42.678;23.244;2023-02-28T12:25:21;22.87;;;10.90;;
9276;SDS011;4676;42.678;23.244;2023-02-28T12:27:59;20.20;;;10.57;;
9276;SDS011;4676;42.678;23.244;2023-02-28T12:30:28;17.17;;;9.53;;
9276;SDS011;4676;42.678;23.244;2023-02-28T12:32:58;21.23;;;9.70;;
9276;SDS011;4676;42.678;23.244;2023-02-28T12:35:32;20.90;;;10.23;;
9276;SDS011;4676;42.678;23.244;2023-02-28T12:38:03;20.37;;;10.23;;
9276;SDS011;4676;42.678;23.244;2023-02-28T12:40:40;18.80;;;9.87;;
9276;SDS011;4676;42.678;23.244;2023-02-28T12:43:12;22.43;;;10.13;;
9276;SDS011;4676;42.678;23.244;2023-02-28T12:45:42;23.37;;;10.07;;
9276;SDS011;4676;42.678;23.244;2023-02-28T12:48:14;18.20;;;8.97;;
9276;SDS011;4676;42.678;23.244;2023-02-28T12:50:44;18.43;;;10.23;;
9276;SDS011;4676;42.678;23.244;2023-02-28T12:53:13;28.13;;;9.90;;
9276;SDS011;4676;42.678;23.244;2023-02-28T12:55:48;20.53;;;9.93;;
9276;SDS011;4676;42.678;23.244;2023-02-28T12:58:26;18.47;;;9.10;;
9276;SDS011;4676;42.678;23.244;2023-02-28T13:01:08;21.57;;;10.53;;
9276;SDS011;4676;42.678;23.244;2023-02-28T13:04:01;21.80;;;10.63;;
9276;SDS011;4676;42.678;23.244;2023-02-28T13:06:45;14.70;;;9.87;;
9276;SDS011;4676;42.678;23.244;2023-02-28T13:09:26;60.17;;;25.80;;
9276;SDS011;4676;42.678;23.244;2023-02-28T13:11:54;51.30;;;15.73;;
9276;SDS011;4676;42.678;23.244;2023-02-28T13:14:25;23.13;;;10.93;;
9276;SDS011;4676;42.678;23.244;2023-02-28T13:16:56;17.63;;;9.23;;
9276;SDS011;4676;42.678;23.244;2023-02-28T13:19:26;15.53;;;9.03;;
9276;SDS011;4676;42.678;23.244;2023-02-28T13:21:54;18.60;;;8.67;;
9276;SDS011;4676;42.678;23.244;2023-02-28T13:24:43;25.87;;;8.80;;
9276;SDS011;4676;42.678;23.244;2023-02-28T13:27:20;20.10;;;9.73;;
9276;SDS011;4676;42.678;23.244;2023-02-28T13:30:04;17.83;;;9.40;;
9276;SDS011;4676;42.678;23.244;2023-02-28T13:33:21;21.50;;;10.00;;
9276;SDS011;4676;42.678;23.244;2023-02-28T13:36:00;19.67;;;9.50;;
9276;SDS011;4676;42.678;23.244;2023-02-28T13:38:49;16.77;;;8.67;;
9276;SDS011;4676;42.678;23.244;2023-02-28T13:44:07;18.40;;;8.83;;
9276;SDS011;4676;42.678;23.244;2023-02-28T13:46:38;20.37;;;8.63;;
9276;SDS011;4676;42.678;23.244;2023-02-28T13:49:41;15.53;;;7.90;;
9276;SDS011;4676;42.678;23.244;2023-02-28T13:52:10;12.57;;;6.70;;
9276;SDS011;4676;42.678;23.244;2023-02-28T13:54:45;13.57;;;7.43;;
9276;SDS011;4676;42.678;23.244;2023-02-28T13:57:28;10.00;;;6.80;;
9276;SDS011;4676;42.678;23.244;2023-02-28T14:00:08;15.33;;;7.73;;
9276;SDS011;4676;42.678;23.244;2023-02-28T14:02:59;15.03;;;7.87;;
9276;SDS011;4676;42.678;23.244;2023-02-28T14:05:33;14.70;;;7.90;;
9276;SDS011;4676;42.678;23.244;2023-02-28T14:08:04;14.77;;;7.50;;
9276;SDS011;4676;42.678;23.244;2023-02-28T14:10:34;13.90;;;6.80;;
9276;SDS011;4676;42.678;23.244;2023-02-28T14:13:12;8.97;;;7.20;;
9276;SDS011;4676;42.678;23.244;2023-02-28T14:15:45;15.93;;;7.50;;
9276;SDS011;4676;42.678;23.244;2023-02-28T14:18:17;11.30;;;7.47;;
9276;SDS011;4676;42.678;23.244;2023-02-28T14:20:47;11.13;;;7.50;;
9276;SDS011;4676;42.678;23.244;2023-02-28T14:23:18;13.33;;;7.30;;
9276;SDS011;4676;42.678;23.244;2023-02-28T14:25:59;11.70;;;7.27;;
9276;SDS011;4676;42.678;23.244;2023-02-28T14:28:37;18.97;;;7.73;;
9276;SDS011;4676;42.678;23.244;2023-02-28T14:31:15;13.50;;;7.57;;
9276;SDS011;4676;42.678;23.244;2023-02-28T14:33:54;14.80;;;8.73;;
9276;SDS011;4676;42.678;23.244;2023-02-28T14:36:31;14.63;;;7.83;;
9276;SDS011;4676;42.678;23.244;2023-02-28T14:39:03;14.10;;;7.77;;
9276;SDS011;4676;42.678;23.244;2023-02-28T14:41:33;25.13;;;7.93;;
9276;SDS011;4676;42.678;23.244;2023-02-28T14:44:03;23.90;;;8.47;;
9276;SDS011;4676;42.678;23.244;2023-02-28T14:46:39;22.77;;;8.73;;
9276;SDS011;4676;42.678;23.244;2023-02-28T14:49:12;17.13;;;7.67;;
9276;SDS011;4676;42.678;23.244;2023-02-28T14:51:43;14.40;;;7.80;;
9276;SDS011;4676;42.678;23.244;2023-02-28T14:54:13;22.60;;;8.03;;
9276;SDS011;4676;42.678;23.244;2023-02-28T14:56:42;22.37;;;7.50;;
9276;SDS011;4676;42.678;23.244;2023-02-28T14:59:26;12.43;;;6.37;;
9276;SDS011;4676;42.678;23.244;2023-02-28T15:04:44;16.17;;;7.70;;
9276;SDS011;4676;42.678;23.244;2023-02-28T15:07:18;14.23;;;6.40;;
9276;SDS011;4676;42.678;23.244;2023-02-28T15:10:06;11.27;;;6.40;;
9276;SDS011;4676;42.678;23.244;2023-02-28T15:12:34;27.47;;;6.93;;
9276;SDS011;4676;42.678;23.244;2023-02-28T15:15:01;18.97;;;7.70;;